UAL11 KDEN-LIRF
Flight info
| Callsign | UAL11 |
|---|---|
| Flight time | N/A |
| Altitude | 35000 |
| Route | CHUWY1 CHUWY DCT ONL DCT HSTIN DCT SSM/N0501F370 DCT YUY DCT YZV DCT RIKAL/M085F390 NATS NETKI/N0495F390 DCT CON DCT LIPGO DCT NUCHU DCT BOGNA UL612 OGULO DCT OKASI DCT OKEKO/N0492F410 DCT MOU DCT MADIV DCT MOKIP DCT TUFTA DCT KOGAS DCT MEDAM DCT NITAM DCT MOGBO DCT ELB/N0489F400 DCT ELKAP |
| Aircraft | B78X/H-SDE1E2E3FGHIJ2J3J4J5M1RWXY/LB1D1 |
Departure
| Time | 2026-05-08 01:04 |
|---|---|
| Airport | Denver International Airport (KDEN) |
Arrival
| Time | N/A |
|---|---|
| Airport | Rome–Fiumicino Leonardo da Vinci International Airport (LIRF) |
| Time | Latitude | Longitude | Altitude | Speed | Heading |
|---|---|---|---|---|---|
| 2026-05-08 00:45 | 39.85796 | -104.67285 | 5383 ft | 0 kts | 359° |
| 2026-05-08 00:53 | 39.85790 | -104.67285 | 5383 ft | 2 kts | 359° |
| 2026-05-08 00:54 | 39.85771 | -104.67285 | 5386 ft | 3 kts | 359° |
| 2026-05-08 00:54 | 39.85751 | -104.67285 | 5384 ft | 3 kts | 359° |
| 2026-05-08 00:54 | 39.85731 | -104.67285 | 5386 ft | 3 kts | 359° |
| 2026-05-08 00:54 | 39.85710 | -104.67285 | 5383 ft | 3 kts | 359° |
| 2026-05-08 00:55 | 39.85695 | -104.67285 | 5382 ft | 3 kts | 358° |
| 2026-05-08 00:55 | 39.85677 | -104.67284 | 5382 ft | 3 kts | 335° |
| 2026-05-08 00:55 | 39.85666 | -104.67278 | 5382 ft | 3 kts | 300° |
| 2026-05-08 00:55 | 39.85661 | -104.67263 | 5382 ft | 3 kts | 268° |
| 2026-05-08 00:56 | 39.85662 | -104.67236 | 5382 ft | 3 kts | 266° |
| 2026-05-08 00:56 | 39.85663 | -104.67221 | 5382 ft | 0 kts | 271° |
| 2026-05-08 00:56 | 39.85663 | -104.67220 | 5382 ft | 1 kts | 271° |
| 2026-05-08 00:58 | 39.85663 | -104.67237 | 5382 ft | 7 kts | 271° |
| 2026-05-08 00:58 | 39.85665 | -104.67365 | 5385 ft | 20 kts | 270° |
| 2026-05-08 00:58 | 39.85667 | -104.67547 | 5392 ft | 21 kts | 270° |
| 2026-05-08 00:59 | 39.85599 | -104.67677 | 5387 ft | 15 kts | 254° |
| 2026-05-08 00:59 | 39.85596 | -104.67816 | 5387 ft | 16 kts | 270° |
| 2026-05-08 00:59 | 39.85597 | -104.67973 | 5387 ft | 18 kts | 270° |
| 2026-05-08 00:59 | 39.85597 | -104.68150 | 5387 ft | 21 kts | 269° |
| 2026-05-08 01:00 | 39.85594 | -104.68337 | 5385 ft | 20 kts | 256° |
| 2026-05-08 01:00 | 39.85489 | -104.68401 | 5375 ft | 16 kts | 182° |
| 2026-05-08 01:00 | 39.85383 | -104.68404 | 5378 ft | 15 kts | 181° |
| 2026-05-08 01:00 | 39.85286 | -104.68404 | 5380 ft | 13 kts | 179° |
| 2026-05-08 01:01 | 39.85225 | -104.68428 | 5383 ft | 12 kts | 226° |
| 2026-05-08 01:01 | 39.85206 | -104.68585 | 5374 ft | 21 kts | 270° |
| 2026-05-08 01:01 | 39.85202 | -104.68797 | 5363 ft | 26 kts | 268° |
| 2026-05-08 01:01 | 39.85197 | -104.69044 | 5357 ft | 28 kts | 269° |
| 2026-05-08 01:02 | 39.85200 | -104.69302 | 5351 ft | 29 kts | 271° |
| 2026-05-08 01:02 | 39.85203 | -104.69556 | 5343 ft | 24 kts | 269° |
| 2026-05-08 01:02 | 39.85233 | -104.69658 | 5340 ft | 4 kts | 352° |
| 2026-05-08 01:02 | 39.85238 | -104.69658 | 5340 ft | 0 kts | 358° |
| 2026-05-08 01:03 | 39.85244 | -104.69658 | 5342 ft | 7 kts | 358° |
| 2026-05-08 01:03 | 39.85480 | -104.69658 | 5344 ft | 65 kts | 1° |
| 2026-05-08 01:03 | 39.86156 | -104.69649 | 5342 ft | 129 kts | 0° |
| 2026-05-08 01:03 | 39.87244 | -104.69638 | 5347 ft | 182 kts | 0° |
| 2026-05-08 01:04 | 39.88656 | -104.69630 | 5523 ft | 215 kts | 1° |
| 2026-05-08 01:04 | 39.90247 | -104.69600 | 5973 ft | 249 kts | 2° |
| 2026-05-08 01:04 | 39.92022 | -104.69555 | 6816 ft | 263 kts | 357° |
| 2026-05-08 01:04 | 39.93838 | -104.69564 | 7951 ft | 265 kts | 358° |
| 2026-05-08 01:05 | 39.95691 | -104.69518 | 8933 ft | 268 kts | 358° |
| 2026-05-08 01:05 | 39.97559 | -104.69454 | 9725 ft | 280 kts | 358° |
| 2026-05-08 01:05 | 39.99603 | -104.69401 | 9980 ft | 311 kts | 358° |
| 2026-05-08 01:05 | 40.01851 | -104.69345 | 9987 ft | 327 kts | 359° |
| 2026-05-08 01:06 | 40.04117 | -104.68809 | 9995 ft | 340 kts | 18° |
| 2026-05-08 01:06 | 40.06206 | -104.67327 | 10275 ft | 346 kts | 29° |
| 2026-05-08 01:06 | 40.08241 | -104.65626 | 11157 ft | 348 kts | 30° |
| 2026-05-08 01:06 | 40.10283 | -104.63875 | 12190 ft | 352 kts | 30° |
| 2026-05-08 01:07 | 40.11649 | -104.62719 | 12843 ft | 355 kts | 29° |
| 2026-05-08 01:07 | 40.13751 | -104.60964 | 13792 ft | 360 kts | 29° |
| 2026-05-08 01:07 | 40.15872 | -104.59191 | 14621 ft | 365 kts | 28° |
| 2026-05-08 01:07 | 40.18022 | -104.57377 | 15476 ft | 369 kts | 28° |
| 2026-05-08 01:08 | 40.20909 | -104.54940 | 16563 ft | 375 kts | 28° |
| 2026-05-08 01:08 | 40.22399 | -104.53685 | 17114 ft | 378 kts | 28° |
| 2026-05-08 01:08 | 40.24623 | -104.51811 | 17907 ft | 383 kts | 27° |
| 2026-05-08 01:08 | 40.26879 | -104.49906 | 18655 ft | 388 kts | 27° |
| 2026-05-08 01:09 | 40.29152 | -104.47984 | 19356 ft | 391 kts | 27° |
| 2026-05-08 01:09 | 40.31452 | -104.46038 | 20057 ft | 395 kts | 27° |
| 2026-05-08 01:09 | 40.33747 | -104.44095 | 20740 ft | 398 kts | 27° |
| 2026-05-08 01:09 | 40.36085 | -104.42115 | 21408 ft | 402 kts | 28° |
| 2026-05-08 01:10 | 40.37678 | -104.40765 | 21857 ft | 405 kts | 28° |
| 2026-05-08 01:10 | 40.39599 | -104.39135 | 22389 ft | 408 kts | 28° |
| 2026-05-08 01:10 | 40.41993 | -104.37102 | 23029 ft | 411 kts | 28° |
| 2026-05-08 01:10 | 40.44410 | -104.35049 | 23642 ft | 415 kts | 28° |
| 2026-05-08 01:11 | 40.46815 | -104.33003 | 24149 ft | 418 kts | 28° |
| 2026-05-08 01:11 | 40.49269 | -104.30915 | 24660 ft | 422 kts | 28° |
| 2026-05-08 01:11 | 40.51743 | -104.28806 | 25153 ft | 425 kts | 27° |
| 2026-05-08 01:11 | 40.54231 | -104.26685 | 25656 ft | 428 kts | 27° |
| 2026-05-08 01:12 | 40.56732 | -104.24525 | 26135 ft | 433 kts | 31° |
| 2026-05-08 01:12 | 40.59008 | -104.21858 | 26629 ft | 443 kts | 42° |
| 2026-05-08 01:12 | 40.61118 | -104.18873 | 27094 ft | 447 kts | 41° |
| 2026-05-08 01:12 | 40.63235 | -104.15850 | 27555 ft | 451 kts | 42° |
| 2026-05-08 01:13 | 40.65364 | -104.12799 | 28019 ft | 454 kts | 41° |
| 2026-05-08 01:13 | 40.67511 | -104.09734 | 28487 ft | 457 kts | 41° |
| 2026-05-08 01:13 | 40.69676 | -104.06649 | 28943 ft | 460 kts | 41° |
| 2026-05-08 01:13 | 40.71851 | -104.03538 | 29383 ft | 463 kts | 41° |
| 2026-05-08 01:14 | 40.74049 | -104.00386 | 29827 ft | 467 kts | 41° |
| 2026-05-08 01:14 | 40.76253 | -103.97225 | 30226 ft | 470 kts | 41° |
| 2026-05-08 01:14 | 40.78445 | -103.94080 | 30596 ft | 472 kts | 41° |
| 2026-05-08 01:14 | 40.80673 | -103.90881 | 30965 ft | 475 kts | 41° |
| 2026-05-08 01:15 | 40.82916 | -103.87654 | 31328 ft | 477 kts | 41° |
| 2026-05-08 01:15 | 40.85161 | -103.84421 | 31688 ft | 479 kts | 41° |
| 2026-05-08 01:15 | 40.87423 | -103.81161 | 32053 ft | 481 kts | 41° |
| 2026-05-08 01:15 | 40.89692 | -103.77888 | 32398 ft | 483 kts | 41° |
| 2026-05-08 01:16 | 40.91966 | -103.74603 | 32747 ft | 485 kts | 41° |
| 2026-05-08 01:16 | 40.94251 | -103.71297 | 33105 ft | 487 kts | 41° |
| 2026-05-08 01:16 | 40.96226 | -103.68438 | 33413 ft | 489 kts | 41° |
| 2026-05-08 01:16 | 40.98243 | -103.65517 | 33703 ft | 490 kts | 41° |
| 2026-05-08 01:17 | 41.00554 | -103.62164 | 34015 ft | 492 kts | 41° |
| 2026-05-08 01:17 | 41.02863 | -103.58811 | 34286 ft | 494 kts | 41° |
| 2026-05-08 01:17 | 41.05185 | -103.55436 | 34542 ft | 496 kts | 41° |
| 2026-05-08 01:17 | 41.07511 | -103.52050 | 34794 ft | 498 kts | 41° |
| 2026-05-08 01:18 | 41.09824 | -103.48680 | 34954 ft | 502 kts | 41° |
| 2026-05-08 01:18 | 41.14497 | -103.41852 | 34943 ft | 497 kts | 41° |
| 2026-05-08 01:19 | 41.19154 | -103.35049 | 34937 ft | 498 kts | 41° |
| 2026-05-08 01:19 | 41.23808 | -103.28220 | 34927 ft | 498 kts | 41° |
| 2026-05-08 01:20 | 41.28156 | -103.21835 | 34937 ft | 497 kts | 41° |
| 2026-05-08 01:20 | 41.32794 | -103.15005 | 34935 ft | 497 kts | 41° |
| 2026-05-08 01:21 | 41.37397 | -103.08212 | 34926 ft | 497 kts | 41° |
| 2026-05-08 01:21 | 41.42017 | -103.01378 | 34907 ft | 496 kts | 41° |
| 2026-05-08 01:22 | 41.46640 | -102.94524 | 34899 ft | 496 kts | 41° |
| 2026-05-08 01:22 | 41.50896 | -102.87237 | 34902 ft | 507 kts | 56° |
| 2026-05-08 01:23 | 41.53537 | -102.78392 | 34887 ft | 517 kts | 65° |
| 2026-05-08 01:23 | 41.55803 | -102.69277 | 34893 ft | 517 kts | 66° |
| 2026-05-08 01:24 | 41.58051 | -102.60214 | 34900 ft | 517 kts | 66° |
| 2026-05-08 01:24 | 41.60241 | -102.51368 | 34900 ft | 517 kts | 66° |
| 2026-05-08 01:25 | 41.62403 | -102.42576 | 34903 ft | 517 kts | 66° |
| 2026-05-08 01:25 | 41.64646 | -102.33444 | 34899 ft | 517 kts | 66° |
| 2026-05-08 01:26 | 41.66879 | -102.24296 | 34899 ft | 518 kts | 66° |
| 2026-05-08 01:26 | 41.69097 | -102.15188 | 34897 ft | 518 kts | 66° |
| 2026-05-08 01:27 | 41.71322 | -102.06009 | 34890 ft | 518 kts | 66° |
| 2026-05-08 01:27 | 41.73539 | -101.96829 | 34891 ft | 518 kts | 66° |
| 2026-05-08 01:28 | 41.75749 | -101.87639 | 34889 ft | 518 kts | 66° |
| 2026-05-08 01:28 | 41.77952 | -101.78443 | 34880 ft | 519 kts | 66° |
| 2026-05-08 01:29 | 41.80149 | -101.69233 | 34880 ft | 519 kts | 66° |
| 2026-05-08 01:29 | 41.82338 | -101.60022 | 34877 ft | 519 kts | 66° |
| 2026-05-08 01:30 | 41.84520 | -101.50801 | 34871 ft | 519 kts | 66° |
| 2026-05-08 01:30 | 41.86693 | -101.41581 | 34871 ft | 518 kts | 66° |
| 2026-05-08 01:31 | 41.88605 | -101.33437 | 34869 ft | 518 kts | 66° |
| 2026-05-08 01:31 | 41.90764 | -101.24206 | 34864 ft | 518 kts | 66° |
| 2026-05-08 01:32 | 41.92917 | -101.14966 | 34873 ft | 517 kts | 66° |
| 2026-05-08 01:32 | 41.95059 | -101.05732 | 34869 ft | 518 kts | 67° |
| 2026-05-08 01:33 | 41.97179 | -100.96553 | 34875 ft | 518 kts | 67° |
| 2026-05-08 01:33 | 41.99309 | -100.87299 | 34890 ft | 518 kts | 67° |
| 2026-05-08 01:34 | 42.01429 | -100.78044 | 34901 ft | 518 kts | 67° |
| 2026-05-08 01:34 | 42.03544 | -100.68776 | 34895 ft | 518 kts | 67° |
| 2026-05-08 01:35 | 42.05637 | -100.59561 | 34908 ft | 518 kts | 67° |
| 2026-05-08 01:35 | 42.07738 | -100.50275 | 34904 ft | 518 kts | 68° |
| 2026-05-08 01:36 | 42.09830 | -100.40990 | 34898 ft | 518 kts | 68° |
| 2026-05-08 01:36 | 42.11917 | -100.31687 | 34894 ft | 519 kts | 68° |
| 2026-05-08 01:37 | 42.13989 | -100.22416 | 34887 ft | 519 kts | 68° |
| 2026-05-08 01:37 | 42.16060 | -100.13101 | 34882 ft | 519 kts | 68° |
| 2026-05-08 01:38 | 42.18051 | -100.04115 | 34878 ft | 520 kts | 68° |
| 2026-05-08 01:38 | 42.20114 | -99.94757 | 34883 ft | 520 kts | 68° |
| 2026-05-08 01:39 | 42.22172 | -99.85393 | 34886 ft | 520 kts | 69° |
| 2026-05-08 01:39 | 42.24211 | -99.76064 | 34884 ft | 521 kts | 69° |
| 2026-05-08 01:40 | 42.26254 | -99.66679 | 34891 ft | 522 kts | 69° |
| 2026-05-08 01:40 | 42.28296 | -99.57260 | 34889 ft | 522 kts | 69° |
| 2026-05-08 01:41 | 42.30321 | -99.47875 | 34896 ft | 522 kts | 69° |
| 2026-05-08 01:41 | 42.32347 | -99.38444 | 34899 ft | 522 kts | 69° |
| 2026-05-08 01:42 | 42.34364 | -99.29012 | 34902 ft | 522 kts | 69° |
| 2026-05-08 01:42 | 42.36371 | -99.19584 | 34902 ft | 522 kts | 70° |
| 2026-05-08 01:43 | 42.38360 | -99.10201 | 34903 ft | 522 kts | 70° |
| 2026-05-08 01:43 | 42.40370 | -99.00679 | 34905 ft | 523 kts | 70° |
| 2026-05-08 01:44 | 42.42345 | -98.91272 | 34900 ft | 523 kts | 70° |
| 2026-05-08 01:44 | 42.44329 | -98.81786 | 34898 ft | 523 kts | 70° |
| 2026-05-08 01:45 | 42.46304 | -98.72295 | 34906 ft | 524 kts | 70° |
| 2026-05-08 01:45 | 42.48972 | -98.63211 | 34906 ft | 519 kts | 60° |
| 2026-05-08 01:46 | 42.52102 | -98.54379 | 34906 ft | 519 kts | 60° |
| 2026-05-08 01:46 | 42.55181 | -98.45578 | 34908 ft | 519 kts | 60° |
| 2026-05-08 01:47 | 42.58279 | -98.36730 | 34909 ft | 520 kts | 60° |
| 2026-05-08 01:47 | 42.61374 | -98.27853 | 34911 ft | 519 kts | 60° |
| 2026-05-08 01:48 | 42.66002 | -98.14529 | 34916 ft | 520 kts | 60° |
| 2026-05-08 01:48 | 42.69073 | -98.05643 | 34921 ft | 520 kts | 60° |
| 2026-05-08 01:49 | 42.72147 | -97.96730 | 34919 ft | 521 kts | 61° |
| 2026-05-08 01:49 | 42.75213 | -97.87805 | 34925 ft | 521 kts | 61° |
| 2026-05-08 01:50 | 42.78275 | -97.78866 | 34922 ft | 521 kts | 61° |
| 2026-05-08 01:50 | 42.81306 | -97.69990 | 34913 ft | 520 kts | 61° |
| 2026-05-08 01:51 | 42.84351 | -97.61042 | 34910 ft | 520 kts | 61° |
| 2026-05-08 01:51 | 42.87383 | -97.52102 | 34900 ft | 519 kts | 62° |
| 2026-05-08 01:52 | 42.90404 | -97.43165 | 34897 ft | 518 kts | 62° |
| 2026-05-08 01:52 | 42.93415 | -97.34231 | 34898 ft | 517 kts | 62° |
| 2026-05-08 01:53 | 42.96409 | -97.25315 | 34900 ft | 516 kts | 62° |
| 2026-05-08 01:53 | 42.99396 | -97.16394 | 34909 ft | 516 kts | 62° |
| 2026-05-08 01:54 | 43.01937 | -97.08781 | 34913 ft | 516 kts | 62° |
| 2026-05-08 01:54 | 43.04913 | -96.99835 | 34917 ft | 516 kts | 62° |
| 2026-05-08 01:55 | 43.07880 | -96.90887 | 34913 ft | 516 kts | 63° |